sensor_id;sensor_type;location;lat;lon;timestamp;P1;durP1;ratioP1;P2;durP2;ratioP2
4102;SDS011;2065;49.790;9.620;2023-03-07T00:01:30;15.60;;;8.47;;
4102;SDS011;2065;49.790;9.620;2023-03-07T00:03:58;19.50;;;8.77;;
4102;SDS011;2065;49.790;9.620;2023-03-07T00:06:26;18.83;;;10.10;;
4102;SDS011;2065;49.790;9.620;2023-03-07T00:08:55;21.93;;;10.37;;
4102;SDS011;2065;49.790;9.620;2023-03-07T00:11:23;19.90;;;9.33;;
4102;SDS011;2065;49.790;9.620;2023-03-07T00:13:50;19.37;;;8.83;;
4102;SDS011;2065;49.790;9.620;2023-03-07T00:16:18;17.83;;;9.50;;
4102;SDS011;2065;49.790;9.620;2023-03-07T00:18:47;18.37;;;9.50;;
4102;SDS011;2065;49.790;9.620;2023-03-07T00:21:15;17.33;;;9.37;;
4102;SDS011;2065;49.790;9.620;2023-03-07T00:23:44;16.80;;;8.40;;
4102;SDS011;2065;49.790;9.620;2023-03-07T00:26:12;18.77;;;10.33;;
4102;SDS011;2065;49.790;9.620;2023-03-07T00:28:41;21.50;;;10.50;;
4102;SDS011;2065;49.790;9.620;2023-03-07T00:31:10;18.50;;;10.43;;
4102;SDS011;2065;49.790;9.620;2023-03-07T00:33:39;17.93;;;9.80;;
4102;SDS011;2065;49.790;9.620;2023-03-07T00:36:06;21.83;;;10.20;;
4102;SDS011;2065;49.790;9.620;2023-03-07T00:38:36;19.60;;;9.93;;
4102;SDS011;2065;49.790;9.620;2023-03-07T00:41:05;18.33;;;8.80;;
4102;SDS011;2065;49.790;9.620;2023-03-07T00:43:34;20.57;;;10.50;;
4102;SDS011;2065;49.790;9.620;2023-03-07T00:46:01;20.27;;;8.60;;
4102;SDS011;2065;49.790;9.620;2023-03-07T00:48:31;21.03;;;9.63;;
4102;SDS011;2065;49.790;9.620;2023-03-07T00:50:58;17.80;;;9.53;;
4102;SDS011;2065;49.790;9.620;2023-03-07T00:53:25;22.37;;;10.47;;
4102;SDS011;2065;49.790;9.620;2023-03-07T00:55:56;22.03;;;10.30;;
4102;SDS011;2065;49.790;9.620;2023-03-07T00:58:25;19.03;;;10.30;;
4102;SDS011;2065;49.790;9.620;2023-03-07T01:00:53;19.70;;;10.17;;
4102;SDS011;2065;49.790;9.620;2023-03-07T01:03:21;16.07;;;9.77;;
4102;SDS011;2065;49.790;9.620;2023-03-07T01:05:48;24.97;;;10.97;;
4102;SDS011;2065;49.790;9.620;2023-03-07T01:08:16;21.30;;;10.47;;
4102;SDS011;2065;49.790;9.620;2023-03-07T01:10:43;19.77;;;9.90;;
4102;SDS011;2065;49.790;9.620;2023-03-07T01:13:13;20.43;;;10.33;;
4102;SDS011;2065;49.790;9.620;2023-03-07T01:15:42;20.20;;;10.27;;
4102;SDS011;2065;49.790;9.620;2023-03-07T01:18:09;23.13;;;10.80;;
4102;SDS011;2065;49.790;9.620;2023-03-07T01:20:37;22.13;;;10.63;;
4102;SDS011;2065;49.790;9.620;2023-03-07T01:23:04;22.43;;;10.23;;
4102;SDS011;2065;49.790;9.620;2023-03-07T01:25:35;25.13;;;11.63;;
4102;SDS011;2065;49.790;9.620;2023-03-07T01:28:04;23.37;;;10.70;;
4102;SDS011;2065;49.790;9.620;2023-03-07T01:30:31;16.23;;;10.23;;
4102;SDS011;2065;49.790;9.620;2023-03-07T01:33:00;19.57;;;9.97;;
4102;SDS011;2065;49.790;9.620;2023-03-07T01:35:28;20.40;;;10.03;;
4102;SDS011;2065;49.790;9.620;2023-03-07T01:37:56;24.80;;;10.87;;
4102;SDS011;2065;49.790;9.620;2023-03-07T01:40:23;19.50;;;9.97;;
4102;SDS011;2065;49.790;9.620;2023-03-07T01:42:51;18.70;;;9.93;;
4102;SDS011;2065;49.790;9.620;2023-03-07T01:48:27;21.93;;;11.03;;
4102;SDS011;2065;49.790;9.620;2023-03-07T01:50:53;18.73;;;10.27;;
4102;SDS011;2065;49.790;9.620;2023-03-07T01:53:20;18.87;;;10.13;;
4102;SDS011;2065;49.790;9.620;2023-03-07T01:55:47;18.47;;;9.37;;
4102;SDS011;2065;49.790;9.620;2023-03-07T01:58:17;20.30;;;10.40;;
4102;SDS011;2065;49.790;9.620;2023-03-07T02:00:44;19.03;;;10.30;;
4102;SDS011;2065;49.790;9.620;2023-03-07T02:03:14;18.03;;;10.33;;
4102;SDS011;2065;49.790;9.620;2023-03-07T02:05:49;21.40;;;10.43;;
4102;SDS011;2065;49.790;9.620;2023-03-07T02:08:19;17.80;;;8.90;;
4102;SDS011;2065;49.790;9.620;2023-03-07T02:10:49;22.17;;;9.93;;
4102;SDS011;2065;49.790;9.620;2023-03-07T02:13:17;25.77;;;11.37;;
4102;SDS011;2065;49.790;9.620;2023-03-07T02:15:44;23.43;;;10.50;;
4102;SDS011;2065;49.790;9.620;2023-03-07T02:18:12;26.33;;;9.90;;
4102;SDS011;2065;49.790;9.620;2023-03-07T02:20:44;23.03;;;11.00;;
4102;SDS011;2065;49.790;9.620;2023-03-07T02:23:19;17.00;;;10.27;;
4102;SDS011;2065;49.790;9.620;2023-03-07T02:25:53;19.20;;;10.07;;
4102;SDS011;2065;49.790;9.620;2023-03-07T02:28:28;23.30;;;10.90;;
4102;SDS011;2065;49.790;9.620;2023-03-07T02:30:56;19.73;;;10.00;;
4102;SDS011;2065;49.790;9.620;2023-03-07T02:33:26;20.43;;;10.67;;
4102;SDS011;2065;49.790;9.620;2023-03-07T02:36:00;22.60;;;11.43;;
4102;SDS011;2065;49.790;9.620;2023-03-07T02:38:33;24.50;;;10.47;;
4102;SDS011;2065;49.790;9.620;2023-03-07T02:41:04;20.07;;;10.50;;
4102;SDS011;2065;49.790;9.620;2023-03-07T02:43:35;21.40;;;11.13;;
4102;SDS011;2065;49.790;9.620;2023-03-07T02:46:03;22.47;;;11.20;;
4102;SDS011;2065;49.790;9.620;2023-03-07T02:48:30;23.20;;;11.50;;
4102;SDS011;2065;49.790;9.620;2023-03-07T02:50:58;18.67;;;9.40;;
4102;SDS011;2065;49.790;9.620;2023-03-07T02:53:25;18.23;;;10.63;;
4102;SDS011;2065;49.790;9.620;2023-03-07T02:55:52;18.37;;;10.97;;
4102;SDS011;2065;49.790;9.620;2023-03-07T02:58:19;24.43;;;11.80;;
4102;SDS011;2065;49.790;9.620;2023-03-07T03:00:48;21.13;;;11.10;;
4102;SDS011;2065;49.790;9.620;2023-03-07T03:03:15;19.67;;;10.50;;
4102;SDS011;2065;49.790;9.620;2023-03-07T03:05:42;24.00;;;11.37;;
4102;SDS011;2065;49.790;9.620;2023-03-07T03:08:09;24.50;;;10.43;;
4102;SDS011;2065;49.790;9.620;2023-03-07T03:10:37;22.80;;;11.30;;
4102;SDS011;2065;49.790;9.620;2023-03-07T03:13:04;18.97;;;10.47;;
4102;SDS011;2065;49.790;9.620;2023-03-07T03:15:32;18.47;;;10.20;;
4102;SDS011;2065;49.790;9.620;2023-03-07T03:18:00;20.87;;;9.73;;
4102;SDS011;2065;49.790;9.620;2023-03-07T03:20:28;19.43;;;9.87;;
4102;SDS011;2065;49.790;9.620;2023-03-07T03:22:55;15.33;;;9.80;;
4102;SDS011;2065;49.790;9.620;2023-03-07T03:25:22;20.03;;;9.70;;
4102;SDS011;2065;49.790;9.620;2023-03-07T03:27:51;24.93;;;10.87;;
4102;SDS011;2065;49.790;9.620;2023-03-07T03:30:18;17.93;;;9.67;;
4102;SDS011;2065;49.790;9.620;2023-03-07T03:32:45;18.17;;;10.63;;
4102;SDS011;2065;49.790;9.620;2023-03-07T03:35:16;15.47;;;9.17;;
4102;SDS011;2065;49.790;9.620;2023-03-07T03:37:43;20.00;;;9.63;;
4102;SDS011;2065;49.790;9.620;2023-03-07T03:40:11;17.40;;;9.10;;
4102;SDS011;2065;49.790;9.620;2023-03-07T03:42:42;18.53;;;9.00;;
4102;SDS011;2065;49.790;9.620;2023-03-07T03:45:11;15.50;;;8.90;;
4102;SDS011;2065;49.790;9.620;2023-03-07T03:47:39;19.33;;;10.27;;
4102;SDS011;2065;49.790;9.620;2023-03-07T03:50:07;15.00;;;8.87;;
4102;SDS011;2065;49.790;9.620;2023-03-07T03:52:36;15.83;;;8.40;;
4102;SDS011;2065;49.790;9.620;2023-03-07T03:55:03;16.07;;;9.17;;
4102;SDS011;2065;49.790;9.620;2023-03-07T03:57:31;17.20;;;9.00;;
4102;SDS011;2065;49.790;9.620;2023-03-07T03:59:58;19.93;;;9.47;;
4102;SDS011;2065;49.790;9.620;2023-03-07T04:02:25;17.50;;;8.67;;
4102;SDS011;2065;49.790;9.620;2023-03-07T04:04:55;16.67;;;9.00;;
4102;SDS011;2065;49.790;9.620;2023-03-07T04:07:21;16.47;;;9.57;;
4102;SDS011;2065;49.790;9.620;2023-03-07T04:09:50;15.10;;;7.10;;
4102;SDS011;2065;49.790;9.620;2023-03-07T04:12:17;18.50;;;9.33;;
4102;SDS011;2065;49.790;9.620;2023-03-07T04:14:44;15.47;;;7.97;;
4102;SDS011;2065;49.790;9.620;2023-03-07T04:17:11;15.67;;;8.43;;
4102;SDS011;2065;49.790;9.620;2023-03-07T04:19:38;12.23;;;7.70;;
4102;SDS011;2065;49.790;9.620;2023-03-07T04:22:06;14.60;;;7.67;;
4102;SDS011;2065;49.790;9.620;2023-03-07T04:24:33;12.50;;;8.20;;
4102;SDS011;2065;49.790;9.620;2023-03-07T04:27:01;17.60;;;8.03;;
4102;SDS011;2065;49.790;9.620;2023-03-07T04:29:30;14.83;;;8.07;;
4102;SDS011;2065;49.790;9.620;2023-03-07T04:32:02;14.60;;;7.60;;
4102;SDS011;2065;49.790;9.620;2023-03-07T04:34:29;12.27;;;7.93;;
4102;SDS011;2065;49.790;9.620;2023-03-07T04:36:57;11.33;;;6.40;;
4102;SDS011;2065;49.790;9.620;2023-03-07T04:39:24;13.30;;;7.57;;
4102;SDS011;2065;49.790;9.620;2023-03-07T04:41:51;16.43;;;8.80;;
4102;SDS011;2065;49.790;9.620;2023-03-07T04:44:22;11.37;;;6.73;;
4102;SDS011;2065;49.790;9.620;2023-03-07T04:46:49;14.00;;;6.83;;
4102;SDS011;2065;49.790;9.620;2023-03-07T04:49:16;23.20;;;13.10;;
4102;SDS011;2065;49.790;9.620;2023-03-07T04:51:43;14.57;;;8.77;;
4102;SDS011;2065;49.790;9.620;2023-03-07T04:54:13;13.70;;;8.00;;
4102;SDS011;2065;49.790;9.620;2023-03-07T04:56:42;15.60;;;9.03;;
4102;SDS011;2065;49.790;9.620;2023-03-07T04:59:10;14.43;;;8.17;;
4102;SDS011;2065;49.790;9.620;2023-03-07T05:01:38;26.97;;;13.87;;
4102;SDS011;2065;49.790;9.620;2023-03-07T05:04:05;103.43;;;51.27;;
4102;SDS011;2065;49.790;9.620;2023-03-07T05:06:33;31.93;;;19.97;;
4102;SDS011;2065;49.790;9.620;2023-03-07T05:09:00;16.63;;;9.43;;
4102;SDS011;2065;49.790;9.620;2023-03-07T05:11:27;27.23;;;13.37;;
4102;SDS011;2065;49.790;9.620;2023-03-07T05:13:54;13.30;;;8.70;;
4102;SDS011;2065;49.790;9.620;2023-03-07T05:16:22;17.13;;;10.90;;
4102;SDS011;2065;49.790;9.620;2023-03-07T05:18:50;11.40;;;6.70;;
4102;SDS011;2065;49.790;9.620;2023-03-07T05:21:17;13.77;;;7.90;;
4102;SDS011;2065;49.790;9.620;2023-03-07T05:23:44;14.40;;;8.77;;
4102;SDS011;2065;49.790;9.620;2023-03-07T05:26:12;26.23;;;12.30;;
4102;SDS011;2065;49.790;9.620;2023-03-07T05:28:39;21.70;;;10.70;;
4102;SDS011;2065;49.790;9.620;2023-03-07T05:31:06;26.40;;;11.80;;
4102;SDS011;2065;49.790;9.620;2023-03-07T05:33:33;34.30;;;12.80;;
4102;SDS011;2065;49.790;9.620;2023-03-07T05:36:02;35.90;;;18.03;;
4102;SDS011;2065;49.790;9.620;2023-03-07T05:38:31;28.73;;;14.30;;
4102;SDS011;2065;49.790;9.620;2023-03-07T05:40:57;35.07;;;15.70;;
4102;SDS011;2065;49.790;9.620;2023-03-07T05:43:24;16.57;;;9.07;;
4102;SDS011;2065;49.790;9.620;2023-03-07T05:45:51;18.77;;;10.07;;
4102;SDS011;2065;49.790;9.620;2023-03-07T05:48:18;9.77;;;5.40;;
4102;SDS011;2065;49.790;9.620;2023-03-07T05:50:45;22.23;;;11.17;;
4102;SDS011;2065;49.790;9.620;2023-03-07T05:53:15;17.00;;;10.93;;
4102;SDS011;2065;49.790;9.620;2023-03-07T05:55:43;22.27;;;12.10;;
4102;SDS011;2065;49.790;9.620;2023-03-07T05:58:11;18.70;;;10.40;;
4102;SDS011;2065;49.790;9.620;2023-03-07T06:00:38;29.23;;;14.60;;
4102;SDS011;2065;49.790;9.620;2023-03-07T06:03:05;23.37;;;12.27;;
4102;SDS011;2065;49.790;9.620;2023-03-07T06:05:32;22.33;;;12.53;;
4102;SDS011;2065;49.790;9.620;2023-03-07T06:08:00;29.27;;;12.47;;
4102;SDS011;2065;49.790;9.620;2023-03-07T06:10:29;26.93;;;12.20;;
4102;SDS011;2065;49.790;9.620;2023-03-07T06:12:56;22.77;;;12.43;;
4102;SDS011;2065;49.790;9.620;2023-03-07T06:15:23;20.63;;;11.20;;
4102;SDS011;2065;49.790;9.620;2023-03-07T06:17:57;21.83;;;13.03;;
4102;SDS011;2065;49.790;9.620;2023-03-07T06:20:24;22.10;;;11.60;;
4102;SDS011;2065;49.790;9.620;2023-03-07T06:22:53;27.23;;;12.57;;
4102;SDS011;2065;49.790;9.620;2023-03-07T06:25:20;30.37;;;13.57;;
4102;SDS011;2065;49.790;9.620;2023-03-07T06:27:49;24.37;;;12.90;;
4102;SDS011;2065;49.790;9.620;2023-03-07T06:30:16;24.03;;;12.80;;
4102;SDS011;2065;49.790;9.620;2023-03-07T06:32:43;21.30;;;11.60;;
4102;SDS011;2065;49.790;9.620;2023-03-07T06:35:11;26.77;;;12.83;;
4102;SDS011;2065;49.790;9.620;2023-03-07T06:37:38;25.33;;;12.73;;
4102;SDS011;2065;49.790;9.620;2023-03-07T06:40:05;27.27;;;13.07;;
4102;SDS011;2065;49.790;9.620;2023-03-07T06:42:35;26.07;;;13.90;;
4102;SDS011;2065;49.790;9.620;2023-03-07T06:45:05;25.13;;;14.40;;
4102;SDS011;2065;49.790;9.620;2023-03-07T06:47:33;23.97;;;13.40;;
4102;SDS011;2065;49.790;9.620;2023-03-07T06:50:01;27.67;;;13.90;;
4102;SDS011;2065;49.790;9.620;2023-03-07T06:52:30;24.40;;;13.33;;
4102;SDS011;2065;49.790;9.620;2023-03-07T06:54:58;24.10;;;12.80;;
4102;SDS011;2065;49.790;9.620;2023-03-07T06:57:26;23.77;;;13.30;;
4102;SDS011;2065;49.790;9.620;2023-03-07T06:59:53;26.20;;;13.53;;
4102;SDS011;2065;49.790;9.620;2023-03-07T07:02:22;24.67;;;13.70;;
4102;SDS011;2065;49.790;9.620;2023-03-07T07:04:49;25.93;;;13.63;;
4102;SDS011;2065;49.790;9.620;2023-03-07T07:07:16;25.03;;;12.87;;
4102;SDS011;2065;49.790;9.620;2023-03-07T07:09:43;24.23;;;12.20;;
4102;SDS011;2065;49.790;9.620;2023-03-07T07:12:10;22.30;;;13.27;;
4102;SDS011;2065;49.790;9.620;2023-03-07T07:14:37;22.33;;;11.67;;
4102;SDS011;2065;49.790;9.620;2023-03-07T07:17:04;22.07;;;12.80;;
4102;SDS011;2065;49.790;9.620;2023-03-07T07:19:33;24.77;;;12.80;;
4102;SDS011;2065;49.790;9.620;2023-03-07T07:22:00;19.37;;;10.80;;
4102;SDS011;2065;49.790;9.620;2023-03-07T07:24:27;25.20;;;11.00;;
4102;SDS011;2065;49.790;9.620;2023-03-07T07:26:54;22.10;;;11.67;;
4102;SDS011;2065;49.790;9.620;2023-03-07T07:29:21;23.60;;;12.07;;
4102;SDS011;2065;49.790;9.620;2023-03-07T07:31:49;21.60;;;12.13;;
4102;SDS011;2065;49.790;9.620;2023-03-07T07:34:18;22.53;;;12.87;;
4102;SDS011;2065;49.790;9.620;2023-03-07T07:36:47;17.03;;;10.60;;
4102;SDS011;2065;49.790;9.620;2023-03-07T07:39:14;24.03;;;11.53;;
4102;SDS011;2065;49.790;9.620;2023-03-07T07:41:43;21.23;;;11.03;;
4102;SDS011;2065;49.790;9.620;2023-03-07T07:44:13;18.43;;;10.47;;
4102;SDS011;2065;49.790;9.620;2023-03-07T07:46:49;19.93;;;9.67;;
4102;SDS011;2065;49.790;9.620;2023-03-07T07:49:16;18.97;;;10.80;;
4102;SDS011;2065;49.790;9.620;2023-03-07T07:51:43;17.03;;;11.07;;
4102;SDS011;2065;49.790;9.620;2023-03-07T07:54:12;20.07;;;10.50;;
4102;SDS011;2065;49.790;9.620;2023-03-07T07:56:39;19.60;;;10.73;;
4102;SDS011;2065;49.790;9.620;2023-03-07T07:59:06;18.53;;;10.60;;
4102;SDS011;2065;49.790;9.620;2023-03-07T08:01:34;20.00;;;9.70;;
4102;SDS011;2065;49.790;9.620;2023-03-07T08:04:02;14.33;;;9.27;;
4102;SDS011;2065;49.790;9.620;2023-03-07T08:06:29;19.30;;;9.50;;
4102;SDS011;2065;49.790;9.620;2023-03-07T08:08:56;12.63;;;9.10;;
4102;SDS011;2065;49.790;9.620;2023-03-07T08:11:25;13.87;;;8.40;;
4102;SDS011;2065;49.790;9.620;2023-03-07T08:13:52;16.30;;;8.90;;
4102;SDS011;2065;49.790;9.620;2023-03-07T08:16:20;13.43;;;7.77;;
4102;SDS011;2065;49.790;9.620;2023-03-07T08:18:49;14.17;;;9.00;;
4102;SDS011;2065;49.790;9.620;2023-03-07T08:21:17;13.13;;;8.83;;
4102;SDS011;2065;49.790;9.620;2023-03-07T08:23:45;14.37;;;8.40;;
4102;SDS011;2065;49.790;9.620;2023-03-07T08:26:12;25.03;;;9.50;;
4102;SDS011;2065;49.790;9.620;2023-03-07T08:28:41;14.93;;;8.03;;
4102;SDS011;2065;49.790;9.620;2023-03-07T08:31:08;15.27;;;8.07;;
4102;SDS011;2065;49.790;9.620;2023-03-07T08:33:38;15.80;;;9.03;;
4102;SDS011;2065;49.790;9.620;2023-03-07T08:36:05;21.10;;;10.10;;
4102;SDS011;2065;49.790;9.620;2023-03-07T08:38:33;13.67;;;8.30;;
4102;SDS011;2065;49.790;9.620;2023-03-07T08:41:00;12.27;;;7.60;;
4102;SDS011;2065;49.790;9.620;2023-03-07T08:43:28;17.90;;;8.37;;
4102;SDS011;2065;49.790;9.620;2023-03-07T08:45:57;14.70;;;8.00;;
4102;SDS011;2065;49.790;9.620;2023-03-07T08:48:24;16.53;;;8.03;;
4102;SDS011;2065;49.790;9.620;2023-03-07T08:50:51;16.93;;;9.00;;
4102;SDS011;2065;49.790;9.620;2023-03-07T08:53:19;29.87;;;17.97;;
4102;SDS011;2065;49.790;9.620;2023-03-07T08:55:46;16.17;;;8.73;;
4102;SDS011;2065;49.790;9.620;2023-03-07T08:58:13;14.40;;;7.43;;
4102;SDS011;2065;49.790;9.620;2023-03-07T09:00:40;12.43;;;7.00;;
4102;SDS011;2065;49.790;9.620;2023-03-07T09:03:08;13.67;;;7.63;;
4102;SDS011;2065;49.790;9.620;2023-03-07T09:05:36;13.10;;;7.93;;
4102;SDS011;2065;49.790;9.620;2023-03-07T09:08:04;12.07;;;7.13;;
4102;SDS011;2065;49.790;9.620;2023-03-07T09:10:31;14.60;;;8.30;;
4102;SDS011;2065;49.790;9.620;2023-03-07T09:12:58;12.40;;;6.63;;
4102;SDS011;2065;49.790;9.620;2023-03-07T09:15:25;10.43;;;6.70;;
4102;SDS011;2065;49.790;9.620;2023-03-07T09:17:52;12.00;;;7.10;;
4102;SDS011;2065;49.790;9.620;2023-03-07T09:20:21;12.03;;;7.00;;
4102;SDS011;2065;49.790;9.620;2023-03-07T09:22:48;12.90;;;7.20;;
4102;SDS011;2065;49.790;9.620;2023-03-07T09:25:16;18.43;;;11.23;;
4102;SDS011;2065;49.790;9.620;2023-03-07T09:27:43;27.30;;;15.33;;
4102;SDS011;2065;49.790;9.620;2023-03-07T09:30:10;12.43;;;6.90;;
4102;SDS011;2065;49.790;9.620;2023-03-07T09:32:38;10.90;;;7.77;;
4102;SDS011;2065;49.790;9.620;2023-03-07T09:35:05;11.40;;;7.23;;
4102;SDS011;2065;49.790;9.620;2023-03-07T09:37:35;11.00;;;6.50;;
4102;SDS011;2065;49.790;9.620;2023-03-07T09:40:02;9.77;;;6.90;;
4102;SDS011;2065;49.790;9.620;2023-03-07T09:42:32;10.40;;;6.70;;
4102;SDS011;2065;49.790;9.620;2023-03-07T09:45:10;9.10;;;5.70;;
4102;SDS011;2065;49.790;9.620;2023-03-07T09:48:02;8.40;;;5.97;;
4102;SDS011;2065;49.790;9.620;2023-03-07T09:50:55;12.93;;;5.70;;
4102;SDS011;2065;49.790;9.620;2023-03-07T09:53:35;10.17;;;6.50;;
4102;SDS011;2065;49.790;9.620;2023-03-07T09:56:06;12.07;;;5.80;;
4102;SDS011;2065;49.790;9.620;2023-03-07T09:58:40;14.23;;;7.53;;
4102;SDS011;2065;49.790;9.620;2023-03-07T10:01:10;10.37;;;6.43;;
4102;SDS011;2065;49.790;9.620;2023-03-07T10:03:42;13.40;;;7.20;;
4102;SDS011;2065;49.790;9.620;2023-03-07T10:06:17;9.97;;;5.87;;
4102;SDS011;2065;49.790;9.620;2023-03-07T10:08:51;7.30;;;6.23;;
4102;SDS011;2065;49.790;9.620;2023-03-07T10:11:23;10.07;;;5.97;;
4102;SDS011;2065;49.790;9.620;2023-03-07T10:14:04;10.20;;;5.20;;
4102;SDS011;2065;49.790;9.620;2023-03-07T10:16:42;7.97;;;5.27;;
4102;SDS011;2065;49.790;9.620;2023-03-07T10:19:16;9.63;;;5.50;;
4102;SDS011;2065;49.790;9.620;2023-03-07T10:21:51;8.53;;;4.90;;
4102;SDS011;2065;49.790;9.620;2023-03-07T10:24:32;12.13;;;5.67;;
4102;SDS011;2065;49.790;9.620;2023-03-07T10:27:12;8.07;;;5.37;;
4102;SDS011;2065;49.790;9.620;2023-03-07T10:29:41;8.03;;;4.87;;
4102;SDS011;2065;49.790;9.620;2023-03-07T10:32:15;10.77;;;5.33;;
4102;SDS011;2065;49.790;9.620;2023-03-07T10:34:46;8.33;;;5.60;;
4102;SDS011;2065;49.790;9.620;2023-03-07T10:37:20;13.63;;;7.70;;
4102;SDS011;2065;49.790;9.620;2023-03-07T10:40:00;10.07;;;5.50;;
4102;SDS011;2065;49.790;9.620;2023-03-07T10:42:29;6.97;;;4.83;;
4102;SDS011;2065;49.790;9.620;2023-03-07T10:45:00;8.50;;;4.70;;
4102;SDS011;2065;49.790;9.620;2023-03-07T10:47:29;8.43;;;4.73;;
4102;SDS011;2065;49.790;9.620;2023-03-07T10:49:57;8.33;;;4.87;;
4102;SDS011;2065;49.790;9.620;2023-03-07T10:52:33;7.23;;;4.03;;
4102;SDS011;2065;49.790;9.620;2023-03-07T10:58:18;8.83;;;4.70;;
4102;SDS011;2065;49.790;9.620;2023-03-07T11:01:01;9.87;;;4.87;;
4102;SDS011;2065;49.790;9.620;2023-03-07T11:03:39;6.33;;;4.90;;
4102;SDS011;2065;49.790;9.620;2023-03-07T11:06:22;6.63;;;4.50;;
4102;SDS011;2065;49.790;9.620;2023-03-07T11:08:52;8.77;;;4.93;;
4102;SDS011;2065;49.790;9.620;2023-03-07T11:11:23;7.50;;;4.47;;
4102;SDS011;2065;49.790;9.620;2023-03-07T11:16:39;10.27;;;4.80;;
4102;SDS011;2065;49.790;9.620;2023-03-07T11:22:00;6.13;;;4.23;;
4102;SDS011;2065;49.790;9.620;2023-03-07T11:24:28;8.77;;;4.33;;
4102;SDS011;2065;49.790;9.620;2023-03-07T11:27:00;8.20;;;4.87;;
4102;SDS011;2065;49.790;9.620;2023-03-07T11:29:28;14.30;;;7.73;;
4102;SDS011;2065;49.790;9.620;2023-03-07T11:32:00;16.70;;;8.70;;
4102;SDS011;2065;49.790;9.620;2023-03-07T11:34:33;9.37;;;5.20;;
4102;SDS011;2065;49.790;9.620;2023-03-07T11:37:12;12.43;;;6.67;;
4102;SDS011;2065;49.790;9.620;2023-03-07T11:39:53;9.53;;;5.37;;
4102;SDS011;2065;49.790;9.620;2023-03-07T11:42:39;8.80;;;6.53;;
4102;SDS011;2065;49.790;9.620;2023-03-07T11:45:14;9.97;;;5.20;;
4102;SDS011;2065;49.790;9.620;2023-03-07T11:47:54;5.33;;;4.30;;
4102;SDS011;2065;49.790;9.620;2023-03-07T11:50:28;9.60;;;5.87;;
4102;SDS011;2065;49.790;9.620;2023-03-07T11:53:08;9.70;;;5.50;;
4102;SDS011;2065;49.790;9.620;2023-03-07T11:55:51;9.40;;;5.40;;
4102;SDS011;2065;49.790;9.620;2023-03-07T11:58:29;9.20;;;5.93;;
4102;SDS011;2065;49.790;9.620;2023-03-07T12:01:09;7.83;;;5.20;;
4102;SDS011;2065;49.790;9.620;2023-03-07T12:06:51;7.50;;;4.80;;
4102;SDS011;2065;49.790;9.620;2023-03-07T12:09:31;7.87;;;5.27;;
4102;SDS011;2065;49.790;9.620;2023-03-07T12:12:12;5.03;;;4.03;;
4102;SDS011;2065;49.790;9.620;2023-03-07T12:14:56;7.63;;;4.93;;
4102;SDS011;2065;49.790;9.620;2023-03-07T12:17:30;7.90;;;4.83;;
4102;SDS011;2065;49.790;9.620;2023-03-07T12:20:16;6.00;;;5.27;;
4102;SDS011;2065;49.790;9.620;2023-03-07T12:23:02;8.03;;;4.80;;
4102;SDS011;2065;49.790;9.620;2023-03-07T12:25:35;7.60;;;5.13;;
4102;SDS011;2065;49.790;9.620;2023-03-07T12:28:07;7.73;;;4.80;;
4102;SDS011;2065;49.790;9.620;2023-03-07T12:30:52;8.03;;;5.30;;
4102;SDS011;2065;49.790;9.620;2023-03-07T12:33:37;10.03;;;5.27;;
4102;SDS011;2065;49.790;9.620;2023-03-07T12:36:14;8.80;;;4.30;;
4102;SDS011;2065;49.790;9.620;2023-03-07T12:38:46;7.73;;;4.70;;
4102;SDS011;2065;49.790;9.620;2023-03-07T12:41:23;7.97;;;4.80;;
4102;SDS011;2065;49.790;9.620;2023-03-07T12:44:02;6.87;;;4.80;;
4102;SDS011;2065;49.790;9.620;2023-03-07T12:46:34;7.30;;;3.90;;
4102;SDS011;2065;49.790;9.620;2023-03-07T12:49:09;5.53;;;4.30;;
4102;SDS011;2065;49.790;9.620;2023-03-07T12:51:42;10.17;;;4.83;;
4102;SDS011;2065;49.790;9.620;2023-03-07T12:54:13;7.97;;;4.77;;
4102;SDS011;2065;49.790;9.620;2023-03-07T12:56:48;9.57;;;5.87;;
4102;SDS011;2065;49.790;9.620;2023-03-07T12:59:19;8.13;;;4.90;;
4102;SDS011;2065;49.790;9.620;2023-03-07T13:01:49;9.00;;;4.60;;
4102;SDS011;2065;49.790;9.620;2023-03-07T13:04:25;6.83;;;3.87;;
4102;SDS011;2065;49.790;9.620;2023-03-07T13:06:59;4.70;;;4.00;;
4102;SDS011;2065;49.790;9.620;2023-03-07T13:09:32;6.37;;;4.50;;
4102;SDS011;2065;49.790;9.620;2023-03-07T13:12:07;6.20;;;4.67;;
4102;SDS011;2065;49.790;9.620;2023-03-07T13:14:55;6.53;;;4.53;;
4102;SDS011;2065;49.790;9.620;2023-03-07T13:20:33;5.20;;;4.13;;
4102;SDS011;2065;49.790;9.620;2023-03-07T13:23:20;10.90;;;4.63;;
4102;SDS011;2065;49.790;9.620;2023-03-07T13:25:55;7.63;;;4.33;;
4102;SDS011;2065;49.790;9.620;2023-03-07T13:28:47;6.60;;;4.27;;
4102;SDS011;2065;49.790;9.620;2023-03-07T13:31:22;9.70;;;5.07;;
4102;SDS011;2065;49.790;9.620;2023-03-07T13:33:54;6.33;;;4.07;;
4102;SDS011;2065;49.790;9.620;2023-03-07T13:36:32;5.90;;;4.60;;
4102;SDS011;2065;49.790;9.620;2023-03-07T13:39:00;13.23;;;6.10;;
4102;SDS011;2065;49.790;9.620;2023-03-07T13:44:26;10.53;;;6.00;;
4102;SDS011;2065;49.790;9.620;2023-03-07T13:46:55;14.80;;;7.43;;
4102;SDS011;2065;49.790;9.620;2023-03-07T13:49:43;17.80;;;10.23;;
4102;SDS011;2065;49.790;9.620;2023-03-07T13:52:14;12.90;;;7.27;;
4102;SDS011;2065;49.790;9.620;2023-03-07T13:54:59;12.37;;;6.97;;
4102;SDS011;2065;49.790;9.620;2023-03-07T13:57:34;8.60;;;5.60;;
4102;SDS011;2065;49.790;9.620;2023-03-07T14:00:17;8.23;;;5.67;;
4102;SDS011;2065;49.790;9.620;2023-03-07T14:02:52;7.93;;;4.93;;
4102;SDS011;2065;49.790;9.620;2023-03-07T14:05:21;12.80;;;5.50;;
4102;SDS011;2065;49.790;9.620;2023-03-07T14:07:48;7.10;;;4.77;;
4102;SDS011;2065;49.790;9.620;2023-03-07T14:10:18;9.80;;;7.00;;
4102;SDS011;2065;49.790;9.620;2023-03-07T14:15:56;13.13;;;6.57;;
4102;SDS011;2065;49.790;9.620;2023-03-07T14:18:33;10.93;;;6.00;;
4102;SDS011;2065;49.790;9.620;2023-03-07T14:21:11;12.30;;;7.40;;
4102;SDS011;2065;49.790;9.620;2023-03-07T14:23:55;11.93;;;6.20;;
4102;SDS011;2065;49.790;9.620;2023-03-07T14:26:33;17.87;;;9.47;;
4102;SDS011;2065;49.790;9.620;2023-03-07T14:29:02;12.03;;;6.40;;
4102;SDS011;2065;49.790;9.620;2023-03-07T14:31:38;9.40;;;6.83;;
4102;SDS011;2065;49.790;9.620;2023-03-07T14:34:18;9.20;;;6.53;;
4102;SDS011;2065;49.790;9.620;2023-03-07T14:36:53;7.67;;;4.60;;
4102;SDS011;2065;49.790;9.620;2023-03-07T14:39:21;9.70;;;5.27;;
4102;SDS011;2065;49.790;9.620;2023-03-07T14:41:52;9.63;;;8.50;;
4102;SDS011;2065;49.790;9.620;2023-03-07T14:47:31;8.97;;;5.53;;
4102;SDS011;2065;49.790;9.620;2023-03-07T14:50:08;9.73;;;5.87;;
4102;SDS011;2065;49.790;9.620;2023-03-07T14:52:40;9.50;;;5.50;;
4102;SDS011;2065;49.790;9.620;2023-03-07T14:55:13;11.50;;;7.27;;
4102;SDS011;2065;49.790;9.620;2023-03-07T14:57:43;14.83;;;8.50;;
4102;SDS011;2065;49.790;9.620;2023-03-07T15:00:19;9.87;;;6.30;;
4102;SDS011;2065;49.790;9.620;2023-03-07T15:02:52;8.23;;;4.90;;
4102;SDS011;2065;49.790;9.620;2023-03-07T15:05:21;9.03;;;6.00;;
4102;SDS011;2065;49.790;9.620;2023-03-07T15:07:50;7.53;;;5.20;;
4102;SDS011;2065;49.790;9.620;2023-03-07T15:10:20;8.67;;;6.20;;
4102;SDS011;2065;49.790;9.620;2023-03-07T15:12:50;8.87;;;4.50;;
4102;SDS011;2065;49.790;9.620;2023-03-07T15:15:22;13.07;;;6.23;;
4102;SDS011;2065;49.790;9.620;2023-03-07T15:17:52;9.33;;;5.80;;
4102;SDS011;2065;49.790;9.620;2023-03-07T15:20:22;8.80;;;5.03;;
4102;SDS011;2065;49.790;9.620;2023-03-07T15:22:52;9.00;;;5.20;;
4102;SDS011;2065;49.790;9.620;2023-03-07T15:25:27;7.60;;;5.00;;
4102;SDS011;2065;49.790;9.620;2023-03-07T15:27:56;8.80;;;4.93;;
4102;SDS011;2065;49.790;9.620;2023-03-07T15:30:29;7.90;;;5.00;;
4102;SDS011;2065;49.790;9.620;2023-03-07T15:33:09;9.80;;;5.10;;
4102;SDS011;2065;49.790;9.620;2023-03-07T15:35:38;9.57;;;6.10;;
4102;SDS011;2065;49.790;9.620;2023-03-07T15:38:11;8.83;;;6.00;;
4102;SDS011;2065;49.790;9.620;2023-03-07T15:40:40;8.63;;;4.90;;
4102;SDS011;2065;49.790;9.620;2023-03-07T15:43:15;11.10;;;6.17;;
4102;SDS011;2065;49.790;9.620;2023-03-07T15:45:56;12.53;;;7.03;;
4102;SDS011;2065;49.790;9.620;2023-03-07T15:48:28;16.40;;;9.60;;